createdAt,value
2019-01-27T00:02:10.864Z,1.50
2019-01-27T00:04:37.817Z,1.67
2019-01-27T00:07:04.777Z,1.60
2019-01-27T00:09:31.723Z,1.70
2019-01-27T00:11:58.668Z,1.40
2019-01-27T00:14:25.637Z,1.73
2019-01-27T00:16:52.649Z,1.50
2019-01-27T00:19:19.585Z,1.60
2019-01-27T00:21:46.566Z,1.50
2019-01-27T00:24:13.506Z,1.87
2019-01-27T00:26:40.438Z,1.70
2019-01-27T00:29:07.391Z,1.60
2019-01-27T00:31:34.327Z,1.70
2019-01-27T00:34:01.286Z,1.50
2019-01-27T00:36:28.256Z,1.50
2019-01-27T00:38:55.196Z,1.73
2019-01-27T00:41:22.124Z,1.70
2019-01-27T00:43:49.591Z,1.80
2019-01-27T00:46:16.520Z,1.70
2019-01-27T00:48:43.488Z,1.70
2019-01-27T00:51:10.440Z,1.60
2019-01-27T00:53:37.383Z,1.57
2019-01-27T00:56:04.648Z,1.80
2019-01-27T00:58:31.589Z,1.83
2019-01-27T01:00:58.516Z,1.70
2019-01-27T01:03:25.548Z,1.60
2019-01-27T01:05:52.497Z,1.63
2019-01-27T01:08:19.426Z,1.40
2019-01-27T01:10:46.372Z,1.60
2019-01-27T01:13:13.332Z,1.50
2019-01-27T01:15:40.267Z,1.37
2019-01-27T01:18:07.208Z,1.73
2019-01-27T01:20:34.176Z,1.57
2019-01-27T01:23:01.131Z,1.50
2019-01-27T01:25:28.062Z,1.80
2019-01-27T01:27:55.041Z,1.40
2019-01-27T01:30:25.175Z,1.60
2019-01-27T01:32:52.095Z,1.50
2019-01-27T01:35:19.064Z,1.60
2019-01-27T01:37:45.998Z,1.80
2019-01-27T01:40:15.223Z,1.90
2019-01-27T01:42:42.160Z,1.53
2019-01-27T01:45:13.932Z,1.63
2019-01-27T01:47:40.862Z,1.77
2019-01-27T01:50:07.871Z,1.63
2019-01-27T01:52:34.808Z,1.90
2019-01-27T01:55:01.749Z,1.50
2019-01-27T01:57:28.710Z,1.70
2019-01-27T01:59:55.660Z,1.40
2019-01-27T02:02:22.609Z,1.40
2019-01-27T02:04:49.557Z,1.60
2019-01-27T02:07:16.488Z,1.40
2019-01-27T02:09:43.449Z,1.70
2019-01-27T02:12:10.377Z,1.70
2019-01-27T02:14:37.317Z,1.70
2019-01-27T02:17:04.264Z,1.60
2019-01-27T02:19:31.214Z,1.80
2019-01-27T02:21:58.153Z,1.67
2019-01-27T02:24:25.085Z,1.50
2019-01-27T02:26:52.035Z,1.80
2019-01-27T02:29:18.968Z,1.70
2019-01-27T02:31:45.903Z,1.77
2019-01-27T02:34:12.880Z,1.70
2019-01-27T02:36:39.804Z,1.53
2019-01-27T02:39:08.004Z,1.97
2019-01-27T02:41:34.983Z,1.60
2019-01-27T02:44:01.925Z,1.50
2019-01-27T02:46:29.301Z,1.50
2019-01-27T02:48:56.251Z,1.60
2019-01-27T02:51:23.186Z,1.30
2019-01-27T02:53:50.129Z,1.60
2019-01-27T02:56:17.058Z,1.60
2019-01-27T02:58:43.987Z,1.43
2019-01-27T03:01:10.926Z,1.57
2019-01-27T03:03:37.878Z,1.47
2019-01-27T03:06:10.078Z,1.50
2019-01-27T03:08:41.232Z,1.33
2019-01-27T03:11:08.157Z,1.30
2019-01-27T03:13:35.113Z,1.20
2019-01-27T03:16:02.072Z,1.47
2019-01-27T03:18:29.003Z,1.30
2019-01-27T03:20:55.945Z,1.23
2019-01-27T03:23:22.909Z,1.40
2019-01-27T03:25:49.846Z,1.40
2019-01-27T03:28:16.775Z,1.60
2019-01-27T03:30:43.722Z,1.67
2019-01-27T03:33:10.644Z,1.43
2019-01-27T03:35:37.594Z,1.40
2019-01-27T03:38:04.555Z,1.70
2019-01-27T03:40:31.485Z,1.30
2019-01-27T03:42:58.415Z,1.33
2019-01-27T03:45:25.364Z,1.30
2019-01-27T03:47:52.555Z,1.37
2019-01-27T03:50:19.493Z,1.40
2019-01-27T03:52:46.461Z,1.50
2019-01-27T03:55:15.158Z,1.47
2019-01-27T03:57:42.081Z,1.40
2019-01-27T04:00:13.257Z,1.50
2019-01-27T04:02:40.180Z,1.30
2019-01-27T04:05:07.133Z,1.77
2019-01-27T04:07:34.084Z,1.60
2019-01-27T04:10:01.007Z,1.93
2019-01-27T04:12:27.948Z,2.23
2019-01-27T04:14:54.905Z,1.77
2019-01-27T04:17:21.846Z,1.53
2019-01-27T04:19:48.775Z,1.57
2019-01-27T04:22:15.736Z,1.70
2019-01-27T04:24:42.663Z,1.73
2019-01-27T04:27:09.597Z,1.80
2019-01-27T04:29:36.550Z,1.77
2019-01-27T04:32:03.475Z,1.57
2019-01-27T04:34:30.400Z,1.90
2019-01-27T04:36:57.343Z,2.00
2019-01-27T04:39:24.271Z,1.90
2019-01-27T04:41:51.197Z,1.90
2019-01-27T04:44:18.138Z,1.97
2019-01-27T04:46:45.058Z,1.93
2019-01-27T04:49:12.276Z,1.90
2019-01-27T04:51:39.232Z,1.70
2019-01-27T04:54:06.169Z,1.73
2019-01-27T04:56:33.100Z,1.33
2019-01-27T04:59:00.053Z,1.53
2019-01-27T05:01:26.980Z,1.43
2019-01-27T05:04:13.540Z,1.43
2019-01-27T05:06:40.465Z,1.87
2019-01-27T05:09:08.571Z,1.57
2019-01-27T05:11:35.536Z,1.67
2019-01-27T05:14:02.464Z,1.53
2019-01-27T05:16:29.396Z,1.40
2019-01-27T05:18:56.338Z,1.30
2019-01-27T05:21:23.269Z,1.60
2019-01-27T05:23:50.206Z,1.47
2019-01-27T05:26:17.140Z,1.57
2019-01-27T05:28:44.073Z,1.63
2019-01-27T05:31:10.991Z,1.63
2019-01-27T05:33:37.978Z,1.80
2019-01-27T05:36:04.913Z,2.00
2019-01-27T05:38:31.868Z,1.50
2019-01-27T05:40:58.824Z,2.20
2019-01-27T05:43:25.748Z,2.30
2019-01-27T05:45:52.699Z,2.37
2019-01-27T05:48:19.640Z,2.37
2019-01-27T05:50:46.947Z,2.90
2019-01-27T05:53:13.875Z,2.53
2019-01-27T05:55:40.854Z,2.60
2019-01-27T05:58:07.787Z,2.70
2019-01-27T06:00:38.968Z,2.90
2019-01-27T06:03:05.924Z,2.70
2019-01-27T06:05:32.877Z,2.70
2019-01-27T06:07:59.795Z,2.50
2019-01-27T06:10:26.743Z,2.60
2019-01-27T06:12:53.685Z,2.80
2019-01-27T06:15:20.632Z,2.73
2019-01-27T06:17:47.595Z,3.00
2019-01-27T06:20:14.549Z,2.80
2019-01-27T06:22:41.484Z,2.80
2019-01-27T06:25:10.614Z,2.30
2019-01-27T06:27:37.542Z,2.77
2019-01-27T06:30:07.143Z,2.53
2019-01-27T06:32:45.493Z,2.50
2019-01-27T06:35:12.420Z,2.30
2019-01-27T06:37:39.358Z,2.40
2019-01-27T06:40:06.388Z,2.13
2019-01-27T06:42:33.358Z,2.10
2019-01-27T06:45:00.280Z,1.87
2019-01-27T06:47:27.226Z,2.07
2019-01-27T06:49:54.169Z,2.10
2019-01-27T06:52:21.636Z,1.50
2019-01-27T06:54:49.004Z,1.37
2019-01-27T06:57:15.991Z,1.60
2019-01-27T06:59:52.464Z,1.30
2019-01-27T07:02:30.701Z,1.30
2019-01-27T07:05:10.424Z,1.67
2019-01-27T07:08:02.845Z,1.80
2019-01-27T07:10:35.631Z,1.80
2019-01-27T07:13:09.435Z,1.60
2019-01-27T07:15:47.871Z,1.40
2019-01-27T07:18:26.380Z,1.50
2019-01-27T07:21:03.469Z,1.67
2019-01-27T07:23:38.188Z,1.40
2019-01-27T07:26:25.675Z,1.40
2019-01-27T07:29:01.501Z,1.50
2019-01-27T07:31:48.833Z,1.20
2019-01-27T07:34:26.287Z,1.30
2019-01-27T07:37:09.289Z,1.10
2019-01-27T07:39:53.869Z,1.40
2019-01-27T07:42:43.120Z,1.10
2019-01-27T07:45:20.340Z,0.83
2019-01-27T07:48:08.937Z,1.00
2019-01-27T07:51:01.486Z,0.97
2019-01-27T07:53:50.575Z,0.90
2019-01-27T07:56:33.364Z,1.00
2019-01-27T07:59:06.749Z,1.20
2019-01-27T08:01:49.523Z,1.20
2019-01-27T08:04:23.640Z,1.20
2019-01-27T08:07:01.055Z,1.40
2019-01-27T08:09:35.710Z,1.47
2019-01-27T08:12:14.073Z,1.30
2019-01-27T08:14:46.891Z,1.40
2019-01-27T08:17:36.224Z,1.90
2019-01-27T08:20:17.150Z,1.80
2019-01-27T08:22:52.067Z,1.90
2019-01-27T08:25:42.696Z,2.10
2019-01-27T08:28:21.700Z,1.77
2019-01-27T08:30:54.444Z,1.77
2019-01-27T08:33:27.319Z,1.70
2019-01-27T08:35:59.364Z,1.50
2019-01-27T08:38:49.988Z,1.30
2019-01-27T08:41:28.078Z,1.50
2019-01-27T08:44:10.056Z,1.17
2019-01-27T08:46:42.427Z,1.60
2019-01-27T08:49:09.350Z,1.50
2019-01-27T08:51:36.280Z,1.77
2019-01-27T08:54:04.252Z,1.60
2019-01-27T08:56:31.209Z,1.50
2019-01-27T08:58:58.127Z,1.70
2019-01-27T09:01:37.388Z,2.10
2019-01-27T09:04:10.830Z,1.73
2019-01-27T09:07:00.453Z,1.57
2019-01-27T09:09:45.925Z,1.77
2019-01-27T09:12:29.336Z,1.63
2019-01-27T09:15:06.296Z,1.93
2019-01-27T09:17:56.838Z,1.73
2019-01-27T09:20:33.276Z,1.63
2019-01-27T09:23:14.900Z,1.93
2019-01-27T09:25:47.568Z,1.93
2019-01-27T09:28:19.938Z,1.80
2019-01-27T09:30:58.499Z,2.40
2019-01-27T09:33:35.493Z,1.97
2019-01-27T09:36:08.288Z,1.80
2019-01-27T09:38:44.210Z,1.90
2019-01-27T09:41:30.751Z,1.80
2019-01-27T09:44:17.325Z,2.10
2019-01-27T09:46:49.952Z,1.77
2019-01-27T09:49:30.859Z,2.00
2019-01-27T09:52:04.960Z,1.77
2019-01-27T09:54:49.663Z,1.93
2019-01-27T09:57:38.064Z,2.00
2019-01-27T10:00:19.883Z,1.70
2019-01-27T10:02:58.800Z,1.87
2019-01-27T10:05:33.855Z,1.70
2019-01-27T10:08:21.295Z,2.00
2019-01-27T10:10:59.324Z,1.90
2019-01-27T10:13:36.656Z,2.20
2019-01-27T10:16:09.353Z,1.87
2019-01-27T10:18:59.707Z,1.93
2019-01-27T10:21:32.431Z,1.93
2019-01-27T10:24:08.588Z,2.10
2019-01-27T10:26:45.059Z,1.90
2019-01-27T10:29:32.580Z,1.73
2019-01-27T10:32:20.013Z,2.10
2019-01-27T10:34:59.478Z,1.93
2019-01-27T10:37:51.394Z,2.20
2019-01-27T10:40:24.608Z,1.90
2019-01-27T10:43:01.993Z,2.03
2019-01-27T10:45:41.217Z,1.93
2019-01-27T10:48:16.316Z,1.93
2019-01-27T10:50:49.111Z,2.27
2019-01-27T10:53:34.960Z,3.20
2019-01-27T10:56:10.268Z,1.40
2019-01-27T10:58:45.217Z,1.00
2019-01-27T11:01:17.984Z,1.00
2019-01-27T11:03:54.178Z,0.90
2019-01-27T11:06:40.836Z,1.00
2019-01-27T11:09:17.039Z,0.90
2019-01-27T11:11:58.612Z,0.70
2019-01-27T11:14:45.199Z,0.93
2019-01-27T11:17:25.790Z,0.60
2019-01-27T11:20:02.486Z,0.90
2019-01-27T11:22:35.132Z,0.90
2019-01-27T11:25:24.701Z,0.90
2019-01-27T11:28:04.684Z,0.60
2019-01-27T11:30:42.816Z,0.70
2019-01-27T11:33:30.171Z,1.00
2019-01-27T11:36:05.596Z,0.80
2019-01-27T11:38:38.283Z,0.50
2019-01-27T11:41:16.809Z,0.50
2019-01-27T11:43:52.721Z,0.87
2019-01-27T11:46:29.021Z,0.80
2019-01-27T11:49:01.166Z,0.50
2019-01-27T11:51:34.464Z,0.63
2019-01-27T11:54:01.392Z,0.80
2019-01-27T11:56:29.664Z,0.60
2019-01-27T11:58:56.616Z,0.67
2019-01-27T12:01:23.552Z,0.67
2019-01-27T12:03:50.502Z,0.90
2019-01-27T12:06:17.456Z,0.70
2019-01-27T12:08:44.387Z,0.70
2019-01-27T12:11:11.344Z,0.90
2019-01-27T12:13:38.295Z,1.13
2019-01-27T12:16:05.229Z,0.80
2019-01-27T12:18:32.157Z,0.63
2019-01-27T12:20:59.115Z,0.80
2019-01-27T12:23:26.049Z,0.90
2019-01-27T12:25:52.987Z,0.63
2019-01-27T12:28:19.936Z,0.70
2019-01-27T12:30:47.005Z,0.50
2019-01-27T12:33:13.948Z,0.70
2019-01-27T12:35:40.907Z,0.80
2019-01-27T12:38:07.844Z,0.50
2019-01-27T12:40:34.782Z,0.57
2019-01-27T12:43:01.744Z,1.00
2019-01-27T12:45:28.673Z,0.90
2019-01-27T12:47:55.615Z,0.70
2019-01-27T12:50:22.588Z,0.90
2019-01-27T12:52:50.175Z,0.80
2019-01-27T12:55:17.108Z,0.70
2019-01-27T12:57:44.460Z,0.77
2019-01-27T13:00:15.212Z,0.70
2019-01-27T13:02:42.170Z,0.97
2019-01-27T13:05:10.440Z,0.87
2019-01-27T13:07:36.089Z,0.63
2019-01-27T13:10:04.366Z,0.70
2019-01-27T13:12:31.310Z,0.90
2019-01-27T13:14:58.243Z,1.53
2019-01-27T13:17:25.191Z,1.20
2019-01-27T13:19:53.879Z,1.10
2019-01-27T13:22:19.064Z,0.83
2019-01-27T13:24:46.366Z,0.90
2019-01-27T13:27:13.307Z,0.80
2019-01-27T13:29:40.255Z,0.80
2019-01-27T13:32:07.192Z,0.70
2019-01-27T13:34:34.144Z,0.67
2019-01-27T13:37:01.071Z,0.70
2019-01-27T13:39:28.008Z,1.00
2019-01-27T13:41:54.966Z,0.70
2019-01-27T13:44:21.925Z,0.80
2019-01-27T13:46:48.857Z,0.97
2019-01-27T13:49:15.803Z,0.63
2019-01-27T13:51:42.725Z,0.80
2019-01-27T13:54:09.660Z,1.00
2019-01-27T13:56:36.600Z,0.90
2019-01-27T13:59:05.018Z,0.80
2019-01-27T14:01:31.961Z,0.70
2019-01-27T14:03:58.911Z,0.70
2019-01-27T14:06:25.850Z,0.80
2019-01-27T14:08:52.772Z,0.83
2019-01-27T14:11:19.719Z,1.00
2019-01-27T14:13:46.657Z,0.77
2019-01-27T14:16:13.582Z,0.80
2019-01-27T14:18:40.534Z,0.70
2019-01-27T14:21:07.448Z,0.90
2019-01-27T14:23:34.384Z,0.80
2019-01-27T14:26:01.345Z,0.80
2019-01-27T14:28:28.281Z,0.90
2019-01-27T14:30:55.204Z,0.90
2019-01-27T14:33:22.143Z,0.80
2019-01-27T14:35:49.080Z,0.60
2019-01-27T14:38:16.096Z,0.70
2019-01-27T14:40:43.052Z,0.70
2019-01-27T14:43:09.976Z,0.83
2019-01-27T14:45:36.912Z,0.63
2019-01-27T14:48:04.215Z,0.80
2019-01-27T14:50:34.716Z,0.50
2019-01-27T14:53:01.651Z,0.80
2019-01-27T14:55:28.607Z,0.80
2019-01-27T14:57:55.534Z,1.00
2019-01-27T15:00:26.600Z,0.87
2019-01-27T15:02:53.553Z,1.13
2019-01-27T15:05:20.487Z,0.80
2019-01-27T15:07:47.416Z,0.97
2019-01-27T15:10:15.820Z,0.90
2019-01-27T15:12:42.757Z,1.10
2019-01-27T15:15:12.387Z,1.10
2019-01-27T15:17:39.351Z,0.90
2019-01-27T15:20:10.401Z,1.00
2019-01-27T15:22:37.340Z,0.90
2019-01-27T15:25:04.423Z,0.90
2019-01-27T15:27:31.412Z,0.60
2019-01-27T15:29:58.343Z,0.77
2019-01-27T15:32:25.300Z,0.87
2019-01-27T15:34:52.242Z,1.10
2019-01-27T15:37:19.176Z,0.90
2019-01-27T15:39:46.133Z,1.03
2019-01-27T15:42:13.064Z,0.80
2019-01-27T15:44:40.009Z,1.00
2019-01-27T15:47:06.973Z,0.87
2019-01-27T15:49:33.900Z,0.90
2019-01-27T15:52:00.858Z,0.87
2019-01-27T15:54:27.772Z,0.77
2019-01-27T15:56:54.701Z,1.00
2019-01-27T15:59:21.624Z,0.83
2019-01-27T16:01:49.216Z,1.10
2019-01-27T16:04:16.213Z,0.90
2019-01-27T16:06:43.136Z,0.90
2019-01-27T16:09:10.106Z,1.07
2019-01-27T16:11:37.040Z,1.27
2019-01-27T16:14:04.573Z,1.40
2019-01-27T16:16:31.539Z,1.20
2019-01-27T16:18:58.952Z,0.83
2019-01-27T16:21:25.403Z,1.27
2019-01-27T16:23:55.765Z,1.13
2019-01-27T16:26:22.700Z,0.90
2019-01-27T16:28:49.630Z,1.23
2019-01-27T16:31:22.381Z,1.13
2019-01-27T16:33:53.363Z,0.80
2019-01-27T16:36:20.301Z,0.90
2019-01-27T16:38:47.266Z,0.90
2019-01-27T16:41:14.180Z,0.80
2019-01-27T16:43:41.132Z,0.80
2019-01-27T16:46:08.080Z,2.60
2019-01-27T16:48:35.008Z,1.70
2019-01-27T16:51:01.968Z,1.40
2019-01-27T16:53:28.916Z,0.90
2019-01-27T16:55:55.880Z,1.40
2019-01-27T16:58:22.792Z,0.80
2019-01-27T17:00:49.746Z,0.97
2019-01-27T17:03:18.051Z,0.87
2019-01-27T17:05:44.975Z,0.80
2019-01-27T17:08:11.928Z,0.93
2019-01-27T17:10:38.844Z,0.87
2019-01-27T17:13:05.787Z,0.70
2019-01-27T17:15:32.741Z,0.67
2019-01-27T17:17:59.664Z,0.83
2019-01-27T17:20:26.600Z,1.00
2019-01-27T17:22:53.555Z,0.80
2019-01-27T17:25:20.500Z,1.43
2019-01-27T17:27:47.415Z,1.03
2019-01-27T17:30:15.312Z,1.10
2019-01-27T17:32:42.261Z,1.53
2019-01-27T17:35:10.717Z,1.30
2019-01-27T17:37:37.668Z,1.17
2019-01-27T17:40:05.646Z,1.50
2019-01-27T17:42:32.577Z,1.60
2019-01-27T17:44:59.527Z,1.30
2019-01-27T17:47:26.451Z,1.07
2019-01-27T17:49:53.380Z,0.97
2019-01-27T17:52:20.336Z,1.20
2019-01-27T17:54:47.268Z,1.43
2019-01-27T17:57:22.892Z,1.50
2019-01-27T17:59:58.745Z,1.40
2019-01-27T18:02:32.154Z,1.50
2019-01-27T18:05:14.246Z,1.27
2019-01-27T18:07:49.303Z,1.13
2019-01-27T18:10:26.182Z,1.50
2019-01-27T18:13:00.183Z,1.10
2019-01-27T18:15:27.094Z,1.20
2019-01-27T18:17:54.030Z,0.90
2019-01-27T18:20:20.982Z,1.20
2019-01-27T18:22:48.047Z,1.00
2019-01-27T18:25:14.978Z,1.10
2019-01-27T18:27:41.937Z,1.10
2019-01-27T18:30:13.036Z,1.40
2019-01-27T18:32:39.961Z,1.40
2019-01-27T18:35:06.919Z,0.90
2019-01-27T18:37:33.831Z,1.20
2019-01-27T18:40:00.769Z,1.20
2019-01-27T18:42:27.766Z,1.17
2019-01-27T18:44:54.702Z,0.93
2019-01-27T18:47:21.628Z,1.10
2019-01-27T18:49:48.565Z,0.90
2019-01-27T18:52:15.500Z,0.90
2019-01-27T18:54:50.083Z,1.00
2019-01-27T18:57:32.933Z,1.27
2019-01-27T19:00:10.228Z,1.10
2019-01-27T19:02:44.079Z,1.07
2019-01-27T19:05:17.615Z,1.00
2019-01-27T19:07:53.544Z,0.97
2019-01-27T19:10:26.214Z,0.90
2019-01-27T19:13:18.754Z,1.00
2019-01-27T19:15:57.816Z,1.00
2019-01-27T19:18:34.180Z,1.03
2019-01-27T19:21:07.481Z,1.00
2019-01-27T19:23:55.035Z,1.03
2019-01-27T19:26:31.581Z,1.00
2019-01-27T19:29:04.203Z,1.10
2019-01-27T19:31:37.464Z,0.90
2019-01-27T19:34:11.480Z,1.10
2019-01-27T19:36:44.764Z,1.00
2019-01-27T19:39:21.635Z,1.30
2019-01-27T19:41:54.903Z,1.03
2019-01-27T19:44:28.436Z,1.43
2019-01-27T19:47:02.357Z,1.50
2019-01-27T19:49:37.482Z,1.20
2019-01-27T19:52:16.852Z,1.90
2019-01-27T19:54:49.595Z,1.13
2019-01-27T19:57:22.244Z,1.10
2019-01-27T19:59:58.143Z,1.70
2019-01-27T20:02:49.599Z,1.57
2019-01-27T20:05:24.893Z,1.40
2019-01-27T20:07:58.330Z,1.40
2019-01-27T20:10:31.175Z,1.40
2019-01-27T20:13:16.499Z,1.30
2019-01-27T20:15:53.081Z,1.00
2019-01-27T20:18:29.174Z,0.90
2019-01-27T20:21:08.133Z,1.10
2019-01-27T20:23:59.586Z,0.97
2019-01-27T20:26:32.324Z,1.03
2019-01-27T20:29:12.058Z,1.00
2019-01-27T20:31:51.324Z,0.70
2019-01-27T20:34:25.581Z,0.60
2019-01-27T20:37:12.125Z,0.73
2019-01-27T20:39:46.476Z,0.90
2019-01-27T20:42:20.907Z,0.50
2019-01-27T20:44:53.697Z,0.50
2019-01-27T20:47:34.456Z,0.53
2019-01-27T20:50:08.385Z,0.77
2019-01-27T20:52:42.171Z,0.50
2019-01-27T20:55:30.956Z,0.50
2019-01-27T20:58:09.459Z,0.47
2019-01-27T21:00:46.356Z,0.60
2019-01-27T21:03:22.595Z,0.60
2019-01-27T21:05:59.742Z,0.60
2019-01-27T21:08:33.597Z,0.70
2019-01-27T21:11:20.162Z,0.50
2019-01-27T21:13:53.087Z,0.50
2019-01-27T21:16:28.036Z,0.60
2019-01-27T21:19:01.749Z,0.63
2019-01-27T21:21:28.697Z,2.53
2019-01-27T21:23:55.612Z,1.10
2019-01-27T21:26:22.553Z,0.70
2019-01-27T21:28:49.512Z,0.60
2019-01-27T21:31:16.640Z,0.87
2019-01-27T21:33:43.668Z,0.93
2019-01-27T21:36:10.634Z,1.00
2019-01-27T21:38:37.557Z,0.80
2019-01-27T21:41:04.507Z,2.87
2019-01-27T21:43:31.469Z,1.10
2019-01-27T21:45:58.412Z,0.70
2019-01-27T21:48:25.353Z,1.00
2019-01-27T21:50:52.336Z,1.00
2019-01-27T21:53:19.306Z,1.00
2019-01-27T21:55:46.257Z,1.00
2019-01-27T21:58:13.208Z,0.80
2019-01-27T22:00:40.185Z,0.90
2019-01-27T22:03:07.121Z,1.10
2019-01-27T22:05:34.067Z,1.00
2019-01-27T22:08:02.488Z,1.07
2019-01-27T22:10:29.412Z,1.00
2019-01-27T22:12:56.363Z,0.90
2019-01-27T22:15:23.300Z,1.37
2019-01-27T22:17:50.253Z,1.27
2019-01-27T22:20:17.203Z,1.10
2019-01-27T22:22:44.144Z,1.47
2019-01-27T22:25:12.066Z,1.40
2019-01-27T22:27:39.016Z,1.10
2019-01-27T22:30:09.178Z,9.73
2019-01-27T22:32:36.112Z,5.57
2019-01-27T22:35:03.316Z,5.03
2019-01-27T22:37:30.254Z,4.43
2019-01-27T22:39:57.184Z,4.30
2019-01-27T22:42:24.141Z,8.77
2019-01-27T22:44:51.084Z,2.87
2019-01-27T22:47:18.020Z,2.60
2019-01-27T22:49:45.007Z,1.20
2019-01-27T22:52:11.920Z,1.40
2019-01-27T22:54:38.857Z,1.20
2019-01-27T22:57:06.395Z,1.40
2019-01-27T22:59:33.325Z,1.40
2019-01-27T23:02:00.252Z,1.60
2019-01-27T23:04:27.262Z,1.40
2019-01-27T23:06:54.197Z,1.50
2019-01-27T23:09:22.616Z,1.60
2019-01-27T23:11:49.660Z,1.40
2019-01-27T23:14:16.596Z,1.50
2019-01-27T23:16:43.534Z,1.57
2019-01-27T23:19:10.532Z,1.50
2019-01-27T23:21:37.459Z,1.50
2019-01-27T23:24:04.423Z,1.70
2019-01-27T23:26:31.400Z,1.70
2019-01-27T23:28:58.324Z,1.80
2019-01-27T23:31:25.247Z,1.73
2019-01-27T23:33:52.205Z,1.77
2019-01-27T23:36:19.152Z,1.80
2019-01-27T23:38:46.099Z,1.67
2019-01-27T23:41:13.059Z,1.80
2019-01-27T23:43:39.993Z,1.57
2019-01-27T23:46:06.939Z,1.90
2019-01-27T23:48:33.887Z,1.60
2019-01-27T23:51:00.832Z,1.70
2019-01-27T23:53:27.756Z,1.63
2019-01-27T23:55:54.713Z,1.60
2019-01-27T23:58:21.647Z,1.50
